createdAt,value
2022-07-26T00:01:20.723Z,4.55
2022-07-26T00:03:49.339Z,6.28
2022-07-26T00:06:16.121Z,7.38
2022-07-26T00:08:45.704Z,8.27
2022-07-26T00:11:12.557Z,8.18
2022-07-26T00:13:39.740Z,7.20
2022-07-26T00:16:06.607Z,5.57
2022-07-26T00:18:33.548Z,3.80
2022-07-26T00:21:00.084Z,3.35
2022-07-26T00:23:27.618Z,8.32
2022-07-26T00:25:54.132Z,6.50
2022-07-26T00:28:20.636Z,11.90
2022-07-26T00:30:47.231Z,5.32
2022-07-26T00:33:13.772Z,7.18
2022-07-26T00:35:40.383Z,6.03
2022-07-26T00:38:06.968Z,10.55
2022-07-26T00:40:34.385Z,9.02
2022-07-26T00:43:00.915Z,8.13
2022-07-26T00:45:27.406Z,5.72
2022-07-26T00:47:53.981Z,12.48
2022-07-26T00:50:20.504Z,8.52
2022-07-26T00:52:49.356Z,9.18
2022-07-26T00:55:16.977Z,8.55
2022-07-26T00:57:44.772Z,6.07
2022-07-26T01:00:15.131Z,7.15
2022-07-26T01:02:41.899Z,12.68
2022-07-26T01:05:08.908Z,6.28
2022-07-26T01:07:37.216Z,10.13
2022-07-26T01:10:06.889Z,10.52
2022-07-26T01:12:33.436Z,7.60
2022-07-26T01:14:59.940Z,7.75
2022-07-26T01:17:26.461Z,8.73
2022-07-26T01:19:52.944Z,8.07
2022-07-26T01:22:19.492Z,13.85
2022-07-26T01:24:45.984Z,7.97
2022-07-26T01:27:12.463Z,7.57
2022-07-26T01:29:39.096Z,9.57
2022-07-26T01:32:06.142Z,6.93
2022-07-26T01:34:32.973Z,9.85
2022-07-26T01:36:59.665Z,6.15
2022-07-26T01:39:26.585Z,7.57
2022-07-26T01:41:54.290Z,7.15
2022-07-26T01:44:20.824Z,10.13
2022-07-26T01:46:47.339Z,4.55
2022-07-26T01:49:14.109Z,13.48
2022-07-26T01:51:40.884Z,5.63
2022-07-26T01:54:07.833Z,12.32
2022-07-26T01:56:35.012Z,11.18
2022-07-26T01:59:01.772Z,10.82
2022-07-26T02:01:38.236Z,5.28
2022-07-26T02:04:29.650Z,7.97
2022-07-26T02:06:56.179Z,9.20
2022-07-26T02:09:22.681Z,1.70
2022-07-26T02:11:49.261Z,4.97
2022-07-26T02:14:25.759Z,9.45
2022-07-26T02:16:59.676Z,4.13
2022-07-26T02:19:28.803Z,11.85
2022-07-26T02:21:55.867Z,5.57
2022-07-26T02:24:22.585Z,8.88
2022-07-26T02:26:49.154Z,8.73
2022-07-26T02:29:15.772Z,8.73
2022-07-26T02:31:42.323Z,7.22
2022-07-26T02:34:15.169Z,11.73
2022-07-26T02:36:41.749Z,7.35
2022-07-26T02:39:08.330Z,14.05
2022-07-26T02:41:34.874Z,10.82
2022-07-26T02:44:01.582Z,8.57
2022-07-26T02:46:28.139Z,11.65
2022-07-26T02:48:54.812Z,10.75
2022-07-26T02:51:21.422Z,14.50
2022-07-26T02:53:47.965Z,11.02
2022-07-26T02:56:14.511Z,11.25
2022-07-26T02:58:41.093Z,12.38
2022-07-26T03:01:08.057Z,17.33
2022-07-26T03:03:36.662Z,13.38
2022-07-26T03:06:05.017Z,3.78
2022-07-26T03:08:31.669Z,4.95
2022-07-26T03:10:58.236Z,8.73
2022-07-26T03:13:24.775Z,7.80
2022-07-26T03:15:51.347Z,11.18
2022-07-26T03:18:17.916Z,8.52
2022-07-26T03:20:44.644Z,14.27
2022-07-26T03:23:11.187Z,12.63
2022-07-26T03:25:38.416Z,10.30
2022-07-26T03:28:05.243Z,14.38
2022-07-26T03:30:31.913Z,11.48
2022-07-26T03:32:58.738Z,8.88
2022-07-26T03:35:25.825Z,2.63
2022-07-26T03:37:52.513Z,15.35
2022-07-26T03:40:19.643Z,8.25
2022-07-26T03:42:47.373Z,8.75
2022-07-26T03:45:15.688Z,8.95
2022-07-26T03:47:43.267Z,14.63
2022-07-26T03:50:11.117Z,15.73
2022-07-26T03:52:37.958Z,14.00
2022-07-26T03:55:24.912Z,6.95
2022-07-26T03:57:51.474Z,12.15
2022-07-26T04:00:18.243Z,4.53
2022-07-26T04:02:44.850Z,14.77
2022-07-26T04:05:11.428Z,17.92
2022-07-26T04:07:52.663Z,15.60
2022-07-26T04:10:20.423Z,12.65
2022-07-26T04:12:46.905Z,17.67
2022-07-26T04:15:13.475Z,15.68
2022-07-26T04:17:41.114Z,5.07
2022-07-26T04:20:10.453Z,10.25
2022-07-26T04:22:38.645Z,20.60
2022-07-26T04:25:06.758Z,14.00
2022-07-26T04:27:33.633Z,15.20
2022-07-26T04:30:00.522Z,14.23
2022-07-26T04:32:27.132Z,20.13
2022-07-26T04:34:53.743Z,13.02
2022-07-26T04:37:20.344Z,22.50
2022-07-26T04:39:50.427Z,21.15
2022-07-26T04:42:19.584Z,19.70
2022-07-26T04:44:46.111Z,18.58
2022-07-26T04:47:12.592Z,20.27
2022-07-26T04:49:40.624Z,21.17
2022-07-26T04:52:07.171Z,19.60
2022-07-26T04:54:33.687Z,21.20
2022-07-26T04:57:00.194Z,20.70
2022-07-26T04:59:26.703Z,18.50
2022-07-26T05:01:53.225Z,21.25
2022-07-26T05:04:19.718Z,19.15
2022-07-26T05:06:46.300Z,23.13
2022-07-26T05:09:12.789Z,20.13
2022-07-26T05:11:39.319Z,22.00
2022-07-26T05:14:06.094Z,22.02
2022-07-26T05:16:33.147Z,18.42
2022-07-26T05:19:00.125Z,15.90
2022-07-26T05:21:28.041Z,27.30
2022-07-26T05:23:55.541Z,22.45
2022-07-26T05:26:22.125Z,17.23
2022-07-26T05:28:48.691Z,13.82
2022-07-26T05:31:15.269Z,13.25
2022-07-26T05:33:42.114Z,17.73
2022-07-26T05:36:09.434Z,18.38
2022-07-26T05:38:35.970Z,18.52
2022-07-26T05:41:02.675Z,17.88
2022-07-26T05:43:41.394Z,20.25
2022-07-26T05:46:09.801Z,21.95
2022-07-26T05:48:36.559Z,21.23
2022-07-26T05:51:03.215Z,23.50
2022-07-26T05:53:29.798Z,16.88
2022-07-26T05:55:56.318Z,24.52
2022-07-26T05:58:22.829Z,24.42
2022-07-26T06:00:49.345Z,17.15
2022-07-26T06:03:25.700Z,17.30
2022-07-26T06:05:55.292Z,22.08
2022-07-26T06:08:22.457Z,23.58
2022-07-26T06:10:49.929Z,15.60
2022-07-26T06:13:17.094Z,19.35
2022-07-26T06:15:45.206Z,15.00
2022-07-26T06:18:11.889Z,20.65
2022-07-26T06:20:40.343Z,18.40
2022-07-26T06:23:07.054Z,14.38
2022-07-26T06:25:34.419Z,21.50
2022-07-26T06:28:05.588Z,8.88
2022-07-26T06:30:32.147Z,4.65
2022-07-26T06:32:58.667Z,18.33
2022-07-26T06:35:25.437Z,27.77
2022-07-26T06:37:51.942Z,23.50
2022-07-26T06:40:18.436Z,19.33
2022-07-26T06:42:44.999Z,21.83
2022-07-26T06:45:11.525Z,21.38
2022-07-26T06:47:38.030Z,25.15
2022-07-26T06:50:05.426Z,24.73
2022-07-26T06:52:32.892Z,17.58
2022-07-26T06:55:00.346Z,25.65
2022-07-26T06:57:27.186Z,17.67
2022-07-26T06:59:54.015Z,20.48
2022-07-26T07:02:21.014Z,20.35
2022-07-26T07:04:47.619Z,23.15
2022-07-26T07:07:14.222Z,26.85
2022-07-26T07:09:41.257Z,29.10
2022-07-26T07:12:09.790Z,15.77
2022-07-26T07:14:38.117Z,17.58
2022-07-26T07:17:11.184Z,15.25
2022-07-26T07:19:40.733Z,22.88
2022-07-26T07:22:11.605Z,24.85
2022-07-26T07:24:38.866Z,25.83
2022-07-26T07:27:05.951Z,24.77
2022-07-26T07:29:33.439Z,26.15
2022-07-26T07:32:00.428Z,25.95
2022-07-26T07:34:30.137Z,7.68
2022-07-26T07:36:57.639Z,23.92
2022-07-26T07:39:24.281Z,23.70
2022-07-26T07:42:01.233Z,21.52
2022-07-26T07:44:27.829Z,19.80
2022-07-26T07:46:54.446Z,17.35
2022-07-26T07:49:22.200Z,15.63
2022-07-26T07:51:48.859Z,17.80
2022-07-26T07:54:16.107Z,9.38
2022-07-26T07:56:43.265Z,18.25
2022-07-26T07:59:10.681Z,7.78
2022-07-26T08:01:40.052Z,11.77
2022-07-26T08:04:08.225Z,29.27
2022-07-26T08:06:34.823Z,15.20
2022-07-26T08:09:01.392Z,5.72
2022-07-26T08:11:30.438Z,18.77
2022-07-26T08:13:57.063Z,18.42
2022-07-26T08:16:24.640Z,17.65
2022-07-26T08:18:57.088Z,14.90
2022-07-26T08:21:28.067Z,16.13
2022-07-26T08:23:56.872Z,16.98
2022-07-26T08:26:23.794Z,4.15
2022-07-26T08:28:59.921Z,6.97
2022-07-26T08:31:28.217Z,14.73
2022-07-26T08:33:54.946Z,17.75
2022-07-26T08:36:21.525Z,11.75
2022-07-26T08:38:48.611Z,9.13
2022-07-26T08:41:17.105Z,3.95
2022-07-26T08:43:53.138Z,10.75
2022-07-26T08:46:25.760Z,5.70
2022-07-26T08:48:53.754Z,11.10
2022-07-26T08:51:22.909Z,12.32
2022-07-26T08:53:53.426Z,11.45
2022-07-26T08:56:19.981Z,12.80
2022-07-26T08:58:46.514Z,4.75
2022-07-26T09:01:13.506Z,8.73
2022-07-26T09:03:44.332Z,12.25
2022-07-26T09:06:21.920Z,4.32
2022-07-26T09:08:53.046Z,5.53
2022-07-26T09:11:33.132Z,11.20
2022-07-26T09:14:05.113Z,9.55
2022-07-26T09:16:36.033Z,5.60
2022-07-26T09:19:18.988Z,8.13
2022-07-26T09:21:46.662Z,10.82
2022-07-26T09:24:29.127Z,10.52
2022-07-26T09:27:00.601Z,8.85
2022-07-26T09:29:29.027Z,7.68
2022-07-26T09:32:16.867Z,11.30
2022-07-26T09:34:52.657Z,6.90
2022-07-26T09:37:37.514Z,11.95
2022-07-26T09:40:08.267Z,8.02
2022-07-26T09:42:35.197Z,9.55
2022-07-26T09:45:02.483Z,12.63
2022-07-26T09:47:36.995Z,9.73
2022-07-26T09:50:15.854Z,4.93
2022-07-26T09:53:08.963Z,8.48
2022-07-26T09:55:57.178Z,3.47
2022-07-26T09:58:24.967Z,6.38
2022-07-26T10:00:51.788Z,10.73
2022-07-26T10:03:18.449Z,10.07
2022-07-26T10:05:45.062Z,7.47
2022-07-26T10:08:12.704Z,7.90
2022-07-26T10:10:46.486Z,5.93
2022-07-26T10:13:13.877Z,4.18
2022-07-26T10:15:46.866Z,6.63
2022-07-26T10:18:38.506Z,5.80
2022-07-26T10:21:30.506Z,7.32
2022-07-26T10:24:01.873Z,5.75
2022-07-26T10:26:31.347Z,5.00
2022-07-26T10:29:19.133Z,4.18
2022-07-26T10:32:08.031Z,4.95
2022-07-26T10:34:37.498Z,5.60
2022-07-26T10:37:07.625Z,9.13
2022-07-26T10:39:34.691Z,2.70
2022-07-26T10:42:09.979Z,6.45
2022-07-26T10:44:39.552Z,8.15
2022-07-26T10:47:09.079Z,6.68
2022-07-26T10:49:38.471Z,6.50
2022-07-26T10:52:20.232Z,4.57
2022-07-26T10:55:04.846Z,5.68
2022-07-26T10:57:34.314Z,4.55
2022-07-26T11:00:02.098Z,7.15
2022-07-26T11:02:32.504Z,11.10
2022-07-26T11:05:03.075Z,8.93
2022-07-26T11:07:30.065Z,3.78
2022-07-26T11:10:00.794Z,5.05
2022-07-26T11:12:27.581Z,5.80
2022-07-26T11:14:54.383Z,8.07
2022-07-26T11:17:29.354Z,4.78
2022-07-26T11:19:56.945Z,7.07
2022-07-26T11:22:31.968Z,5.45
2022-07-26T11:24:58.554Z,5.00
2022-07-26T11:27:25.092Z,6.43
2022-07-26T11:29:51.633Z,7.75
2022-07-26T11:32:25.116Z,2.42
2022-07-26T11:35:02.919Z,8.15
2022-07-26T11:37:29.915Z,2.38
2022-07-26T11:39:56.844Z,3.45
2022-07-26T11:42:23.428Z,2.30
2022-07-26T11:44:50.545Z,4.68
2022-07-26T11:47:25.564Z,3.38
2022-07-26T11:52:40.225Z,3.03
2022-07-26T11:55:07.494Z,2.75
2022-07-26T11:57:34.040Z,2.80
2022-07-26T12:00:01.527Z,2.70
2022-07-26T12:02:30.271Z,3.47
2022-07-26T12:05:19.248Z,3.42
2022-07-26T12:08:03.896Z,5.30
2022-07-26T12:10:30.627Z,2.20
2022-07-26T12:13:15.420Z,2.38
2022-07-26T12:15:50.628Z,1.85
2022-07-26T12:18:35.276Z,1.17
2022-07-26T12:21:07.436Z,6.23
2022-07-26T12:23:45.820Z,4.03
2022-07-26T12:26:30.662Z,1.42
2022-07-26T12:28:59.712Z,5.78
2022-07-26T12:31:31.056Z,2.05
2022-07-26T12:33:58.897Z,3.13
2022-07-26T12:36:27.713Z,3.92
2022-07-26T12:38:56.687Z,1.63
2022-07-26T12:41:33.314Z,2.75
2022-07-26T12:43:59.988Z,2.17
2022-07-26T12:46:26.734Z,2.75
2022-07-26T12:48:56.807Z,1.80
2022-07-26T12:51:26.722Z,1.02
2022-07-26T12:53:53.260Z,2.05
2022-07-26T12:56:19.734Z,3.33
2022-07-26T12:58:46.183Z,1.83
2022-07-26T13:01:12.972Z,1.95
2022-07-26T13:03:39.600Z,4.35
2022-07-26T13:06:06.726Z,2.17
2022-07-26T13:08:33.281Z,0.93
2022-07-26T13:11:00.268Z,1.20
2022-07-26T13:13:26.924Z,0.98
2022-07-26T13:15:53.427Z,3.53
2022-07-26T13:18:19.961Z,2.83
2022-07-26T13:20:46.466Z,0.90
2022-07-26T13:23:15.812Z,2.20
2022-07-26T13:25:48.601Z,3.22
2022-07-26T13:28:17.362Z,1.50
2022-07-26T13:30:45.080Z,1.65
2022-07-26T13:33:12.404Z,3.33
2022-07-26T13:35:41.331Z,4.57
2022-07-26T13:38:09.014Z,1.10
2022-07-26T13:40:36.118Z,2.38
2022-07-26T13:43:02.947Z,1.35
2022-07-26T13:45:29.847Z,4.43
2022-07-26T13:47:59.080Z,2.03
2022-07-26T13:50:27.332Z,2.20
2022-07-26T13:52:56.210Z,2.67
2022-07-26T13:55:23.227Z,3.40
2022-07-26T13:57:55.978Z,1.65
2022-07-26T14:00:24.548Z,2.72
2022-07-26T14:02:51.169Z,5.78
2022-07-26T14:05:18.743Z,5.13
2022-07-26T14:07:45.553Z,5.25
2022-07-26T14:10:12.096Z,3.67
2022-07-26T14:12:38.735Z,4.63
2022-07-26T14:15:12.010Z,12.63
2022-07-26T14:17:40.648Z,4.85
2022-07-26T14:20:07.872Z,4.25
2022-07-26T14:22:34.353Z,3.30
2022-07-26T14:25:00.921Z,2.67
2022-07-26T14:27:27.618Z,6.43
2022-07-26T14:29:54.167Z,6.57
2022-07-26T14:32:22.142Z,4.00
2022-07-26T14:34:49.554Z,5.85
2022-07-26T14:37:44.158Z,4.65
2022-07-26T14:40:04.851Z,3.97
2022-07-26T14:42:31.382Z,2.92
2022-07-26T14:44:57.930Z,4.45
2022-07-26T14:47:24.499Z,5.68
2022-07-26T14:49:51.062Z,2.60
2022-07-26T14:52:17.656Z,10.45
2022-07-26T14:54:44.230Z,18.40
2022-07-26T14:57:10.740Z,7.70
2022-07-26T14:59:37.251Z,5.72
2022-07-26T15:02:05.850Z,3.28
2022-07-26T15:04:32.868Z,2.63
2022-07-26T15:06:59.796Z,2.88
2022-07-26T15:09:26.316Z,5.63
2022-07-26T15:11:53.098Z,1.90
2022-07-26T15:14:19.673Z,3.60
2022-07-26T15:16:46.439Z,4.70
2022-07-26T15:19:13.013Z,3.40
2022-07-26T15:21:39.664Z,3.42
2022-07-26T15:24:06.553Z,0.90
2022-07-26T15:26:33.137Z,4.15
2022-07-26T15:28:59.717Z,4.70
2022-07-26T15:31:37.168Z,3.92
2022-07-26T15:34:07.550Z,2.33
2022-07-26T15:36:34.579Z,4.03
2022-07-26T15:39:14.716Z,9.68
2022-07-26T15:41:43.764Z,2.05
2022-07-26T15:44:12.255Z,5.43
2022-07-26T15:46:39.900Z,4.55
2022-07-26T15:49:07.549Z,5.18
2022-07-26T15:51:34.389Z,4.80
2022-07-26T15:54:03.052Z,3.42
2022-07-26T15:56:29.949Z,5.18
2022-07-26T15:58:56.610Z,5.00
2022-07-26T16:01:23.326Z,3.60
2022-07-26T16:03:50.565Z,6.25
2022-07-26T16:06:18.223Z,6.47
2022-07-26T16:09:05.937Z,4.00
2022-07-26T16:11:31.822Z,10.77
2022-07-26T16:14:00.922Z,5.68
2022-07-26T16:16:29.337Z,5.90
2022-07-26T16:18:56.028Z,3.78
2022-07-26T16:21:22.561Z,4.28
2022-07-26T16:23:50.822Z,6.15
2022-07-26T16:26:17.922Z,2.65
2022-07-26T16:28:44.533Z,6.25
2022-07-26T16:31:11.156Z,4.60
2022-07-26T16:33:37.851Z,5.47
2022-07-26T16:36:12.442Z,8.27
2022-07-26T16:38:39.010Z,5.45
2022-07-26T16:41:07.371Z,9.07
2022-07-26T16:43:34.596Z,4.80
2022-07-26T16:46:01.498Z,8.65
2022-07-26T16:48:28.185Z,4.78
2022-07-26T16:50:54.829Z,6.60
2022-07-26T16:53:21.430Z,10.05
2022-07-26T16:55:49.694Z,9.68
2022-07-26T16:58:16.575Z,10.50
2022-07-26T17:00:43.476Z,6.95
2022-07-26T17:03:10.237Z,11.52
2022-07-26T17:05:36.829Z,5.90
2022-07-26T17:08:03.493Z,12.10
2022-07-26T17:10:30.056Z,8.80
2022-07-26T17:12:56.618Z,8.70
2022-07-26T17:15:23.138Z,8.85
2022-07-26T17:17:49.796Z,8.75
2022-07-26T17:20:16.936Z,9.00
2022-07-26T17:22:43.511Z,6.95
2022-07-26T17:25:10.240Z,12.50
2022-07-26T17:27:36.963Z,12.65
2022-07-26T17:30:07.092Z,7.25
2022-07-26T17:32:34.380Z,12.88
2022-07-26T17:35:01.057Z,9.18
2022-07-26T17:37:27.658Z,10.38
2022-07-26T17:39:55.333Z,4.68
2022-07-26T17:42:24.289Z,8.15
2022-07-26T17:44:51.208Z,6.75
2022-07-26T17:47:29.089Z,7.32
2022-07-26T17:50:08.925Z,10.50
2022-07-26T17:52:45.315Z,9.05
2022-07-26T17:55:12.027Z,9.27
2022-07-26T17:57:38.589Z,7.63
2022-07-26T18:00:06.715Z,12.10
2022-07-26T18:02:33.525Z,9.65
2022-07-26T18:05:00.269Z,12.52
2022-07-26T18:07:27.095Z,5.95
2022-07-26T18:09:53.585Z,7.65
2022-07-26T18:12:20.372Z,9.25
2022-07-26T18:14:46.884Z,8.95
2022-07-26T18:17:13.427Z,7.90
2022-07-26T18:19:40.006Z,11.10
2022-07-26T18:22:06.598Z,8.48
2022-07-26T18:24:33.220Z,9.20
2022-07-26T18:26:59.760Z,12.57
2022-07-26T18:29:26.340Z,7.75
2022-07-26T18:31:52.927Z,9.55
2022-07-26T18:34:19.522Z,10.65
2022-07-26T18:36:46.113Z,8.93
2022-07-26T18:39:13.051Z,8.85
2022-07-26T18:41:39.809Z,9.85
2022-07-26T18:44:06.345Z,10.38
2022-07-26T18:46:33.684Z,13.10
2022-07-26T18:49:00.614Z,6.28
2022-07-26T18:51:29.188Z,12.70
2022-07-26T18:53:58.277Z,8.68
2022-07-26T18:56:24.913Z,10.85
2022-07-26T18:58:51.514Z,11.40
2022-07-26T19:01:18.268Z,7.47
2022-07-26T19:03:44.910Z,10.25
2022-07-26T19:06:13.076Z,8.77
2022-07-26T19:08:39.664Z,12.27
2022-07-26T19:11:06.333Z,11.18
2022-07-26T19:13:32.915Z,12.88
2022-07-26T19:15:59.462Z,9.82
2022-07-26T19:18:25.984Z,10.45
2022-07-26T19:20:52.476Z,7.63
2022-07-26T19:23:19.072Z,10.23
2022-07-26T19:25:46.387Z,12.93
2022-07-26T19:28:13.787Z,6.97
2022-07-26T19:30:40.494Z,14.50
2022-07-26T19:33:07.268Z,12.52
2022-07-26T19:35:33.747Z,10.38
2022-07-26T19:38:00.403Z,11.02
2022-07-26T19:40:27.031Z,6.78
2022-07-26T19:42:53.585Z,10.88
2022-07-26T19:45:20.127Z,8.80
2022-07-26T19:47:46.735Z,11.43
2022-07-26T19:50:13.512Z,6.65
2022-07-26T19:52:40.790Z,18.15
2022-07-26T19:55:08.189Z,11.77
2022-07-26T19:57:34.817Z,8.00
2022-07-26T20:00:03.013Z,8.35
2022-07-26T20:02:29.772Z,9.27
2022-07-26T20:04:56.366Z,10.30
2022-07-26T20:07:22.939Z,10.55
2022-07-26T20:09:50.589Z,4.47
2022-07-26T20:12:18.542Z,7.10
2022-07-26T20:14:45.381Z,6.50
2022-07-26T20:17:13.262Z,10.20
2022-07-26T20:19:40.457Z,6.65
2022-07-26T20:22:07.071Z,8.25
2022-07-26T20:24:34.433Z,7.70
2022-07-26T20:27:00.919Z,9.63
2022-07-26T20:29:27.564Z,6.50
2022-07-26T20:31:54.095Z,3.97
2022-07-26T20:34:20.596Z,8.57
2022-07-26T20:36:47.305Z,6.07
2022-07-26T20:39:15.055Z,6.68
2022-07-26T20:41:41.794Z,9.18
2022-07-26T20:44:08.432Z,7.40
2022-07-26T20:46:39.994Z,13.05
2022-07-26T20:49:08.022Z,9.95
2022-07-26T20:51:34.808Z,9.70
2022-07-26T20:54:01.418Z,5.30
2022-07-26T20:56:29.123Z,6.90
2022-07-26T20:58:55.689Z,4.60
2022-07-26T21:01:22.470Z,6.40
2022-07-26T21:03:48.983Z,10.20
2022-07-26T21:06:15.679Z,8.95
2022-07-26T21:08:42.201Z,7.03
2022-07-26T21:11:08.690Z,9.50
2022-07-26T21:13:35.199Z,9.23
2022-07-26T21:16:01.801Z,9.55
2022-07-26T21:18:32.669Z,6.88
2022-07-26T21:21:01.652Z,8.27
2022-07-26T21:23:28.212Z,9.52
2022-07-26T21:25:58.096Z,5.97
2022-07-26T21:28:27.300Z,7.80
2022-07-26T21:30:54.143Z,4.53
2022-07-26T21:33:20.869Z,10.38
2022-07-26T21:35:47.381Z,5.93
2022-07-26T21:38:14.077Z,7.00
2022-07-26T21:40:40.632Z,6.65
2022-07-26T21:43:07.249Z,8.98
2022-07-26T21:45:33.876Z,6.28
2022-07-26T21:48:00.481Z,6.43
2022-07-26T21:50:27.847Z,5.53
2022-07-26T21:52:54.329Z,8.32
2022-07-26T21:55:20.937Z,12.85
2022-07-26T21:57:47.988Z,13.55
2022-07-26T22:00:16.275Z,6.90
2022-07-26T22:02:42.845Z,5.20
2022-07-26T22:05:28.167Z,7.20
2022-07-26T22:07:55.140Z,7.63
2022-07-26T22:10:21.809Z,10.05
2022-07-26T22:12:48.295Z,5.50
2022-07-26T22:15:14.837Z,8.85
2022-07-26T22:17:41.505Z,7.95
2022-07-26T22:20:09.071Z,7.97
2022-07-26T22:22:36.686Z,7.18
2022-07-26T22:25:04.768Z,7.55
2022-07-26T22:27:31.300Z,9.00
2022-07-26T22:29:57.801Z,7.05
2022-07-26T22:32:24.415Z,8.38
2022-07-26T22:34:50.910Z,6.95
2022-07-26T22:37:17.488Z,4.72
2022-07-26T22:39:44.021Z,4.50
2022-07-26T22:42:15.786Z,7.65
2022-07-26T22:44:42.893Z,7.60
2022-07-26T22:47:09.410Z,7.32
2022-07-26T22:49:36.028Z,7.80
2022-07-26T22:52:02.662Z,5.00
2022-07-26T22:54:29.230Z,7.60
2022-07-26T22:56:55.920Z,8.18
2022-07-26T22:59:22.794Z,7.15
2022-07-26T23:01:49.370Z,8.45
2022-07-26T23:04:16.098Z,8.30
2022-07-26T23:06:43.002Z,3.50
2022-07-26T23:09:11.508Z,5.43
2022-07-26T23:11:38.373Z,3.95
2022-07-26T23:14:05.083Z,7.22
2022-07-26T23:16:31.787Z,4.35
2022-07-26T23:18:58.359Z,3.13
2022-07-26T23:21:25.320Z,8.75
2022-07-26T23:23:51.810Z,5.30
2022-07-26T23:26:18.306Z,7.15
2022-07-26T23:28:44.791Z,4.63
2022-07-26T23:31:14.352Z,5.10
2022-07-26T23:33:53.326Z,5.68
2022-07-26T23:36:30.105Z,4.75
2022-07-26T23:38:58.967Z,4.03
2022-07-26T23:41:26.666Z,6.65
2022-07-26T23:43:54.434Z,4.78
2022-07-26T23:46:21.743Z,5.53
2022-07-26T23:48:48.466Z,9.50
2022-07-26T23:51:15.367Z,9.68
2022-07-26T23:53:42.063Z,7.15
2022-07-26T23:56:08.706Z,4.60
2022-07-26T23:58:35.292Z,8.27
